createdAt,value
2018-07-17T00:00:41.564Z,1007.39
2018-07-17T00:01:41.589Z,1007.37
2018-07-17T00:02:41.633Z,1007.39
2018-07-17T00:03:41.638Z,1007.4
2018-07-17T00:04:41.663Z,1007.36
2018-07-17T00:05:41.688Z,1007.37
2018-07-17T00:06:41.714Z,1007.42
2018-07-17T00:07:41.738Z,1007.36
2018-07-17T00:08:41.761Z,1007.37
2018-07-17T00:09:41.913Z,1007.36
2018-07-17T00:10:41.812Z,1007.35
2018-07-17T00:11:41.836Z,1007.36
2018-07-17T00:12:41.878Z,1007.32
2018-07-17T00:13:41.886Z,1007.28
2018-07-17T00:14:41.912Z,1007.25
2018-07-17T00:15:41.937Z,1007.28
2018-07-17T00:16:41.960Z,1007.25
2018-07-17T00:17:41.989Z,1007.24
2018-07-17T00:18:42.011Z,1007.25
2018-07-17T00:19:42.034Z,1007.29
2018-07-17T00:20:42.060Z,1007.29
2018-07-17T00:21:42.086Z,1007.26
2018-07-17T00:22:42.109Z,1007.28
2018-07-17T00:24:42.159Z,1007.27
2018-07-17T00:25:42.184Z,1007.27
2018-07-17T00:26:42.208Z,1007.24
2018-07-17T00:27:42.233Z,1007.23
2018-07-17T00:28:42.259Z,1007.22
2018-07-17T00:29:42.285Z,1007.21
2018-07-17T00:30:42.306Z,1007.22
2018-07-17T00:31:42.332Z,1007.21
2018-07-17T00:32:42.357Z,1007.2
2018-07-17T00:33:42.381Z,1007.24
2018-07-17T00:34:42.406Z,1007.22
2018-07-17T00:35:42.435Z,1007.25
2018-07-17T00:36:42.456Z,1007.27
2018-07-17T00:37:42.479Z,1007.3
2018-07-17T00:38:42.503Z,1007.28
2018-07-17T00:40:42.555Z,1007.31
2018-07-17T00:41:42.579Z,1007.31
2018-07-17T00:42:42.606Z,1007.33
2018-07-17T00:43:42.629Z,1007.28
2018-07-17T00:44:42.653Z,1007.32
2018-07-17T00:45:42.679Z,1007.32
2018-07-17T00:46:42.703Z,1007.32
2018-07-17T00:47:42.727Z,1007.36
2018-07-17T00:48:42.757Z,1007.37
2018-07-17T00:49:42.781Z,1007.37
2018-07-17T00:50:42.803Z,1007.36
2018-07-17T00:51:42.827Z,1007.37
2018-07-17T00:52:42.850Z,1007.31
2018-07-17T00:53:42.875Z,1007.31
2018-07-17T00:54:42.902Z,1007.31
2018-07-17T00:56:42.951Z,1007.28
2018-07-17T00:57:42.975Z,1007.28
2018-07-17T00:58:43.000Z,1007.32
2018-07-17T00:59:43.023Z,1007.31
2018-07-17T01:00:43.049Z,1007.32
2018-07-17T01:01:43.074Z,1007.33
2018-07-17T01:02:43.120Z,1007.38
2018-07-17T01:03:43.124Z,1007.37
2018-07-17T01:04:43.151Z,1007.35
2018-07-17T01:05:43.177Z,1007.39
2018-07-17T01:06:43.196Z,1007.42
2018-07-17T01:07:43.223Z,1007.37
2018-07-17T01:08:43.251Z,1007.36
2018-07-17T01:09:43.272Z,1007.37
2018-07-17T01:10:43.296Z,1007.42
2018-07-17T01:12:43.347Z,1007.38
2018-07-17T01:13:43.371Z,1007.41
2018-07-17T01:14:43.395Z,1007.36
2018-07-17T01:15:43.422Z,1007.36
2018-07-17T01:16:43.444Z,1007.39
2018-07-17T01:17:43.469Z,1007.38
2018-07-17T01:18:43.493Z,1007.36
2018-07-17T01:19:43.518Z,1007.4
2018-07-17T01:20:43.544Z,1007.42
2018-07-17T01:21:43.568Z,1007.41
2018-07-17T01:22:43.592Z,1007.41
2018-07-17T01:23:43.616Z,1007.41
2018-07-17T01:24:43.640Z,1007.38
2018-07-17T01:25:43.667Z,1007.4
2018-07-17T01:27:43.717Z,1007.38
2018-07-17T01:28:43.740Z,1007.34
2018-07-17T01:29:43.765Z,1007.34
2018-07-17T01:30:43.790Z,1007.34
2018-07-17T01:31:43.815Z,1007.32
2018-07-17T01:32:43.839Z,1007.31
2018-07-17T01:33:43.864Z,1007.34
2018-07-17T01:34:43.888Z,1007.3
2018-07-17T01:35:43.913Z,1007.3
2018-07-17T01:36:43.937Z,1007.29
2018-07-17T01:37:43.962Z,1007.28
2018-07-17T01:38:43.987Z,1007.29
2018-07-17T01:39:44.013Z,1007.27
2018-07-17T01:40:44.036Z,1007.28
2018-07-17T01:41:44.061Z,1007.23
2018-07-17T01:42:44.089Z,1007.27
2018-07-17T01:43:44.108Z,1007.29
2018-07-17T01:44:44.137Z,1007.27
2018-07-17T01:45:44.158Z,1007.25
2018-07-17T01:46:44.183Z,1007.35
2018-07-17T01:47:44.206Z,1007.28
2018-07-17T01:48:44.232Z,1007.29
2018-07-17T01:49:44.258Z,1007.29
2018-07-17T01:50:44.280Z,1007.3
2018-07-17T01:51:44.306Z,1007.25
2018-07-17T01:52:44.335Z,1007.3
2018-07-17T01:53:44.355Z,1007.27
2018-07-17T01:54:44.422Z,1007.25
2018-07-17T01:55:44.403Z,1007.28
2018-07-17T01:56:44.429Z,1007.26
2018-07-17T01:57:44.452Z,1007.25
2018-07-17T01:59:44.501Z,1007.23
2018-07-17T02:00:44.527Z,1007.24
2018-07-17T02:01:44.550Z,1007.18
2018-07-17T02:02:44.575Z,1007.19
2018-07-17T02:03:44.603Z,1007.19
2018-07-17T02:04:44.637Z,1007.19
2018-07-17T02:05:44.648Z,1007.22
2018-07-17T02:06:44.675Z,1007.17
2018-07-17T02:07:44.698Z,1007.18
2018-07-17T02:08:44.724Z,1007.2
2018-07-17T02:09:44.746Z,1007.17
2018-07-17T02:10:44.773Z,1007.2
2018-07-17T02:11:44.798Z,1007.17
2018-07-17T02:12:44.820Z,1007.2
2018-07-17T02:13:44.845Z,1007.16
2018-07-17T02:15:44.894Z,1007.17
2018-07-17T02:16:44.917Z,1007.17
2018-07-17T02:17:44.943Z,1007.16
2018-07-17T02:18:44.978Z,1007.17
2018-07-17T02:19:44.990Z,1007.19
2018-07-17T02:20:45.017Z,1007.18
2018-07-17T02:21:45.043Z,1007.18
2018-07-17T02:22:45.066Z,1007.18
2018-07-17T02:23:45.092Z,1007.2
2018-07-17T02:24:45.114Z,1007.19
2018-07-17T02:25:45.139Z,1007.19
2018-07-17T02:26:45.163Z,1007.19
2018-07-17T02:27:45.187Z,1007.21
2018-07-17T02:28:45.213Z,1007.19
2018-07-17T02:29:45.247Z,1007.17
2018-07-17T02:31:45.285Z,1007.17
2018-07-17T02:32:45.311Z,1007.12
2018-07-17T02:33:45.336Z,1007.12
2018-07-17T02:34:45.361Z,1007.14
2018-07-17T02:35:45.382Z,1007.12
2018-07-17T02:36:45.408Z,1007.09
2018-07-17T02:37:45.436Z,1007.05
2018-07-17T02:38:45.457Z,1007.11
2018-07-17T02:39:45.481Z,1007.1
2018-07-17T02:40:45.506Z,1007.08
2018-07-17T02:41:45.530Z,1007.11
2018-07-17T02:42:45.554Z,1007.1
2018-07-17T02:43:45.584Z,1007.11
2018-07-17T02:44:45.613Z,1007.11
2018-07-17T02:45:45.628Z,1007.12
2018-07-17T02:47:45.676Z,1007.09
2018-07-17T02:48:45.703Z,1007.06
2018-07-17T02:49:45.727Z,1007.07
2018-07-17T02:50:45.750Z,1007.04
2018-07-17T02:51:45.775Z,1007.08
2018-07-17T02:52:45.799Z,1007.05
2018-07-17T02:53:45.824Z,1007.05
2018-07-17T02:54:45.848Z,1007.05
2018-07-17T02:55:45.875Z,1007.04
2018-07-17T02:56:45.898Z,1007.08
2018-07-17T02:57:45.922Z,1007.05
2018-07-17T02:58:45.947Z,1007.05
2018-07-17T02:59:45.971Z,1007.02
2018-07-17T03:00:45.996Z,1007.06
2018-07-17T03:02:46.045Z,1007.13
2018-07-17T03:03:46.069Z,1007.11
2018-07-17T03:04:46.094Z,1007.11
2018-07-17T03:05:46.124Z,1007.13
2018-07-17T03:06:46.150Z,1007.13
2018-07-17T03:07:46.168Z,1007.17
2018-07-17T03:08:46.191Z,1007.14
2018-07-17T03:09:46.216Z,1007.18
2018-07-17T03:10:46.239Z,1007.19
2018-07-17T03:11:46.263Z,1007.17
2018-07-17T03:12:46.291Z,1007.23
2018-07-17T03:13:46.314Z,1007.22
2018-07-17T03:14:46.340Z,1007.22
2018-07-17T03:15:46.361Z,1007.19
2018-07-17T03:16:46.386Z,1007.24
2018-07-17T03:17:46.412Z,1007.22
2018-07-17T03:18:46.435Z,1007.25
2018-07-17T03:19:46.460Z,1007.29
2018-07-17T03:20:46.485Z,1007.29
2018-07-17T03:21:46.507Z,1007.3
2018-07-17T03:22:46.533Z,1007.3
2018-07-17T03:23:46.560Z,1007.36
2018-07-17T03:24:46.582Z,1007.37
2018-07-17T03:25:46.605Z,1007.35
2018-07-17T03:26:46.630Z,1007.36
2018-07-17T03:27:46.655Z,1007.36
2018-07-17T03:28:46.680Z,1007.37
2018-07-17T03:29:46.703Z,1007.37
2018-07-17T03:30:46.727Z,1007.32
2018-07-17T03:31:46.753Z,1007.31
2018-07-17T03:32:46.776Z,1007.33
2018-07-17T03:34:46.825Z,1007.35
2018-07-17T03:35:46.849Z,1007.34
2018-07-17T03:36:46.874Z,1007.32
2018-07-17T03:37:46.898Z,1007.35
2018-07-17T03:38:46.923Z,1007.38
2018-07-17T03:39:46.948Z,1007.36
2018-07-17T03:40:46.971Z,1007.34
2018-07-17T03:41:46.998Z,1007.33
2018-07-17T03:42:47.020Z,1007.34
2018-07-17T03:43:47.044Z,1007.36
2018-07-17T03:44:47.069Z,1007.33
2018-07-17T03:45:47.093Z,1007.33
2018-07-17T03:46:47.118Z,1007.35
2018-07-17T03:47:47.191Z,1007.3
2018-07-17T03:48:47.167Z,1007.26
2018-07-17T03:50:47.220Z,1007.25
2018-07-17T03:51:47.239Z,1007.26
2018-07-17T03:52:47.264Z,1007.27
2018-07-17T03:53:47.295Z,1007.31
2018-07-17T03:54:47.317Z,1007.31
2018-07-17T03:55:47.337Z,1007.31
2018-07-17T03:56:47.361Z,1007.32
2018-07-17T03:57:47.386Z,1007.33
2018-07-17T03:58:47.409Z,1007.31
2018-07-17T03:59:47.435Z,1007.3
2018-07-17T04:00:47.459Z,1007.32
2018-07-17T04:01:47.484Z,1007.3
2018-07-17T04:02:47.562Z,1007.3
2018-07-17T04:03:47.533Z,1007.29
2018-07-17T04:04:47.557Z,1007.28
2018-07-17T04:06:47.609Z,1007.28
2018-07-17T04:07:47.630Z,1007.32
2018-07-17T04:08:47.771Z,1007.29
2018-07-17T04:09:47.678Z,1007.32
2018-07-17T04:10:47.705Z,1007.3
2018-07-17T04:11:47.729Z,1007.25
2018-07-17T04:12:47.755Z,1007.25
2018-07-17T04:13:47.776Z,1007.24
2018-07-17T04:14:47.802Z,1007.24
2018-07-17T04:15:47.827Z,1007.24
2018-07-17T04:16:47.851Z,1007.29
2018-07-17T04:17:47.874Z,1007.28
2018-07-17T04:18:47.900Z,1007.29
2018-07-17T04:19:47.925Z,1007.34
2018-07-17T04:20:47.949Z,1007.38
2018-07-17T04:22:47.998Z,1007.4
2018-07-17T04:23:48.022Z,1007.4
2018-07-17T04:24:48.047Z,1007.41
2018-07-17T04:25:48.071Z,1007.39
2018-07-17T04:26:48.097Z,1007.41
2018-07-17T04:27:48.120Z,1007.42
2018-07-17T04:28:48.146Z,1007.38
2018-07-17T04:29:48.238Z,1007.42
2018-07-17T04:30:48.195Z,1007.38
2018-07-17T04:31:48.243Z,1007.37
2018-07-17T04:32:48.243Z,1007.37
2018-07-17T04:33:48.268Z,1007.37
2018-07-17T04:34:48.292Z,1007.35
2018-07-17T04:35:48.319Z,1007.38
2018-07-17T04:37:48.368Z,1007.41
2018-07-17T04:38:48.392Z,1007.43
2018-07-17T04:39:48.417Z,1007.45
2018-07-17T04:40:48.443Z,1007.45
2018-07-17T04:41:48.468Z,1007.46
2018-07-17T04:42:48.494Z,1007.48
2018-07-17T04:43:48.515Z,1007.49
2018-07-17T04:44:48.542Z,1007.47
2018-07-17T04:45:48.566Z,1007.45
2018-07-17T04:46:48.592Z,1007.42
2018-07-17T04:47:48.615Z,1007.52
2018-07-17T04:48:48.641Z,1007.51
2018-07-17T04:49:48.666Z,1007.5
2018-07-17T04:50:48.691Z,1007.48
2018-07-17T04:51:48.716Z,1007.48
2018-07-17T04:52:48.744Z,1007.52
2018-07-17T04:53:48.782Z,1007.5
2018-07-17T04:54:48.791Z,1007.44
2018-07-17T04:55:48.817Z,1007.47
2018-07-17T04:56:48.842Z,1007.49
2018-07-17T04:57:48.867Z,1007.48
2018-07-17T04:58:48.892Z,1007.45
2018-07-17T04:59:48.917Z,1007.45
2018-07-17T05:00:48.943Z,1007.44
2018-07-17T05:01:48.972Z,1007.46
2018-07-17T05:02:48.993Z,1007.45
2018-07-17T05:03:49.018Z,1007.48
2018-07-17T05:04:49.047Z,1007.49
2018-07-17T05:05:49.068Z,1007.46
2018-07-17T05:06:49.094Z,1007.46
2018-07-17T05:07:49.118Z,1007.47
2018-07-17T05:09:49.169Z,1007.54
2018-07-17T05:10:49.195Z,1007.51
2018-07-17T05:11:49.218Z,1007.51
2018-07-17T05:12:49.284Z,1007.49
2018-07-17T05:13:49.271Z,1007.51
2018-07-17T05:14:49.294Z,1007.52
2018-07-17T05:15:49.319Z,1007.57
2018-07-17T05:16:49.345Z,1007.55
2018-07-17T05:17:49.369Z,1007.55
2018-07-17T05:18:49.439Z,1007.52
2018-07-17T05:19:49.421Z,1007.53
2018-07-17T05:20:49.455Z,1007.55
2018-07-17T05:21:49.473Z,1007.53
2018-07-17T05:22:49.500Z,1007.57
2018-07-17T05:23:49.521Z,1007.57
2018-07-17T05:25:49.576Z,1007.58
2018-07-17T05:26:49.608Z,1007.6
2018-07-17T05:27:49.623Z,1007.57
2018-07-17T05:28:49.650Z,1007.6
2018-07-17T05:29:49.674Z,1007.61
2018-07-17T05:30:49.699Z,1007.62
2018-07-17T05:31:49.725Z,1007.6
2018-07-17T05:32:49.749Z,1007.6
2018-07-17T05:33:49.775Z,1007.59
2018-07-17T05:34:49.804Z,1007.62
2018-07-17T05:35:49.830Z,1007.6
2018-07-17T05:36:49.855Z,1007.56
2018-07-17T05:37:49.877Z,1007.57
2018-07-17T05:38:49.901Z,1007.56
2018-07-17T05:39:49.929Z,1007.6
2018-07-17T05:41:49.981Z,1007.68
2018-07-17T05:42:50.106Z,1007.69
2018-07-17T05:43:50.033Z,1007.74
2018-07-17T05:44:50.058Z,1007.69
2018-07-17T05:45:50.084Z,1007.69
2018-07-17T05:46:50.114Z,1007.66
2018-07-17T05:47:50.137Z,1007.64
2018-07-17T05:48:50.165Z,1007.61
2018-07-17T05:49:50.190Z,1007.58
2018-07-17T05:50:50.217Z,1007.64
2018-07-17T05:51:50.249Z,1007.66
2018-07-17T05:52:50.269Z,1007.65
2018-07-17T05:53:50.296Z,1007.66
2018-07-17T05:54:50.323Z,1007.65
2018-07-17T05:55:50.350Z,1007.68
2018-07-17T05:57:50.404Z,1007.72
2018-07-17T05:58:50.431Z,1007.75
2018-07-17T05:59:50.457Z,1007.77
2018-07-17T06:00:50.484Z,1007.76
2018-07-17T06:01:50.510Z,1007.84
2018-07-17T06:02:50.538Z,1007.81
2018-07-17T06:03:50.565Z,1007.85
2018-07-17T06:04:50.593Z,1007.84
2018-07-17T06:05:50.621Z,1007.8
2018-07-17T06:06:50.648Z,1007.79
2018-07-17T06:07:50.675Z,1007.77
2018-07-17T06:08:50.706Z,1007.82
2018-07-17T06:09:50.733Z,1007.82
2018-07-17T06:10:50.758Z,1007.83
2018-07-17T06:12:50.815Z,1007.8
2018-07-17T06:13:50.843Z,1007.82
2018-07-17T06:14:50.871Z,1007.83
2018-07-17T06:15:50.902Z,1007.8
2018-07-17T06:16:50.927Z,1007.76
2018-07-17T06:17:50.954Z,1007.76
2018-07-17T06:18:51.016Z,1007.8
2018-07-17T06:19:51.012Z,1007.83
2018-07-17T06:20:51.039Z,1007.85
2018-07-17T06:21:51.068Z,1007.8
2018-07-17T06:22:51.095Z,1007.84
2018-07-17T06:23:51.131Z,1007.89
2018-07-17T06:24:51.152Z,1007.99
2018-07-17T06:25:51.183Z,1008.05
2018-07-17T06:26:51.209Z,1008.08
2018-07-17T06:27:51.239Z,1008.05
2018-07-17T06:28:51.267Z,1008.04
2018-07-17T06:29:51.297Z,1008.01
2018-07-17T06:30:51.327Z,1008.01
2018-07-17T06:31:51.355Z,1007.97
2018-07-17T06:32:51.397Z,1008.04
2018-07-17T06:33:51.415Z,1008.14
2018-07-17T06:34:51.445Z,1008.18
2018-07-17T06:35:51.473Z,1008.21
2018-07-17T06:36:51.505Z,1008.23
2018-07-17T06:37:51.536Z,1008.14
2018-07-17T06:38:51.646Z,1008.19
2018-07-17T06:39:51.594Z,1008.16
2018-07-17T06:40:51.627Z,1008.18
2018-07-17T06:41:51.655Z,1008.2
2018-07-17T06:42:51.689Z,1008.13
2018-07-17T06:44:51.747Z,1008.08
2018-07-17T06:45:51.777Z,1008.05
2018-07-17T06:46:51.810Z,1008.08
2018-07-17T06:47:51.841Z,1008.1
2018-07-17T06:48:51.871Z,1008.09
2018-07-17T06:49:51.903Z,1008.12
2018-07-17T06:50:51.974Z,1008.15
2018-07-17T06:51:51.964Z,1008.18
2018-07-17T06:52:51.997Z,1008.16
2018-07-17T06:53:52.027Z,1008.12
2018-07-17T06:54:52.059Z,1008.07
2018-07-17T06:55:52.090Z,1008.02
2018-07-17T06:56:52.173Z,1007.98
2018-07-17T06:57:52.154Z,1007.96
2018-07-17T06:58:52.186Z,1007.96
2018-07-17T07:00:52.248Z,1007.93
2018-07-17T07:01:52.280Z,1007.89
2018-07-17T07:02:52.312Z,1007.87
2018-07-17T07:03:52.343Z,1007.89
2018-07-17T07:04:52.375Z,1007.85
2018-07-17T07:05:52.405Z,1007.87
2018-07-17T07:06:52.437Z,1007.9
2018-07-17T07:07:52.469Z,1007.88
2018-07-17T07:08:52.497Z,1007.87
2018-07-17T07:09:52.532Z,1007.95
2018-07-17T07:10:52.560Z,1007.97
2018-07-17T07:11:52.593Z,1008
2018-07-17T07:12:52.625Z,1008.02
2018-07-17T07:13:52.654Z,1008.07
2018-07-17T07:14:52.685Z,1008.11
2018-07-17T07:16:52.745Z,1008.05
2018-07-17T07:17:52.781Z,1008.17
2018-07-17T07:18:52.809Z,1008.13
2018-07-17T07:19:52.838Z,1008.14
2018-07-17T07:20:52.871Z,1008.18
2018-07-17T07:21:52.947Z,1008.17
2018-07-17T07:22:52.937Z,1008.21
2018-07-17T07:23:52.965Z,1008.24
2018-07-17T07:24:52.996Z,1008.16
2018-07-17T07:25:53.026Z,1008.13
2018-07-17T07:26:53.059Z,1008.12
2018-07-17T07:27:53.089Z,1008.26
2018-07-17T07:28:53.120Z,1008.25
2018-07-17T07:29:53.252Z,1008.25
2018-07-17T07:30:53.193Z,1008.25
2018-07-17T07:32:53.244Z,1008.16
2018-07-17T07:33:53.277Z,1008.26
2018-07-17T07:34:53.308Z,1008.32
2018-07-17T07:35:53.340Z,1008.28
2018-07-17T07:36:53.372Z,1008.2
2018-07-17T07:37:53.403Z,1008.21
2018-07-17T07:38:53.440Z,1008.27
2018-07-17T07:39:53.466Z,1008.39
2018-07-17T07:40:53.498Z,1008.44
2018-07-17T07:41:53.529Z,1008.35
2018-07-17T07:42:53.587Z,1008.41
2018-07-17T07:43:53.594Z,1008.49
2018-07-17T07:44:53.626Z,1008.51
2018-07-17T07:45:53.658Z,1008.34
2018-07-17T07:47:53.723Z,1008.25
2018-07-17T07:48:53.754Z,1008.25
2018-07-17T07:49:53.788Z,1008.24
2018-07-17T07:50:53.824Z,1008.25
2018-07-17T07:51:53.851Z,1008.21
2018-07-17T07:52:53.883Z,1008.14
2018-07-17T07:53:53.919Z,1008.09
2018-07-17T07:54:53.948Z,1008.06
2018-07-17T07:55:53.980Z,1008.09
2018-07-17T07:56:54.013Z,1007.95
2018-07-17T07:57:54.044Z,1007.87
2018-07-17T07:58:54.134Z,1007.8
2018-07-17T07:59:54.112Z,1007.82
2018-07-17T08:00:54.150Z,1007.81
2018-07-17T08:01:54.176Z,1007.83
2018-07-17T08:02:54.308Z,1007.88
2018-07-17T08:03:54.310Z,1007.78
2018-07-17T08:04:54.270Z,1007.73
2018-07-17T08:05:54.305Z,1007.7
2018-07-17T08:06:54.344Z,1007.7
2018-07-17T08:07:54.367Z,1007.7
2018-07-17T08:08:54.403Z,1007.7
2018-07-17T08:09:54.431Z,1007.74
2018-07-17T08:10:54.464Z,1007.65
2018-07-17T08:11:54.600Z,1007.66
2018-07-17T08:12:54.526Z,1007.67
2018-07-17T08:13:54.558Z,1007.66
2018-07-17T08:14:54.590Z,1007.67
2018-07-17T08:15:54.620Z,1007.68
2018-07-17T08:16:54.651Z,1007.71
2018-07-17T08:17:54.682Z,1007.7
2018-07-17T08:19:54.744Z,1007.73
2018-07-17T08:20:54.777Z,1007.69
2018-07-17T08:21:54.807Z,1007.78
2018-07-17T08:22:54.836Z,1007.73
2018-07-17T08:23:54.869Z,1007.68
2018-07-17T08:24:54.903Z,1007.71
2018-07-17T08:25:54.931Z,1007.76
2018-07-17T08:26:54.963Z,1007.77
2018-07-17T08:27:54.999Z,1007.81
2018-07-17T08:28:55.056Z,1007.84
2018-07-17T08:29:55.066Z,1007.85
2018-07-17T08:30:55.090Z,1007.9
2018-07-17T08:31:55.119Z,1007.8
2018-07-17T08:32:55.150Z,1007.79
2018-07-17T08:33:55.182Z,1007.84
2018-07-17T08:35:55.365Z,1007.86
2018-07-17T08:36:55.277Z,1007.81
2018-07-17T08:37:55.309Z,1007.76
2018-07-17T08:38:55.340Z,1007.69
2018-07-17T08:39:55.372Z,1007.62
2018-07-17T08:40:55.404Z,1007.64
2018-07-17T08:41:55.435Z,1007.64
2018-07-17T08:42:55.469Z,1007.65
2018-07-17T08:43:55.500Z,1007.54
2018-07-17T08:44:55.531Z,1007.57
2018-07-17T08:45:55.563Z,1007.54
2018-07-17T08:46:55.601Z,1007.58
2018-07-17T08:47:55.625Z,1007.59
2018-07-17T08:48:55.657Z,1007.71
2018-07-17T08:49:55.690Z,1007.91
2018-07-17T08:51:55.751Z,1007.89
2018-07-17T08:52:55.787Z,1007.95
2018-07-17T08:53:55.815Z,1007.97
2018-07-17T08:54:55.846Z,1007.93
2018-07-17T08:55:55.878Z,1007.97
2018-07-17T08:56:55.909Z,1007.85
2018-07-17T08:57:55.941Z,1007.81
2018-07-17T08:58:55.972Z,1007.82
2018-07-17T08:59:56.004Z,1007.77
2018-07-17T09:00:56.036Z,1007.75
2018-07-17T09:01:56.067Z,1007.73
2018-07-17T09:02:56.101Z,1007.75
2018-07-17T09:03:56.131Z,1007.73
2018-07-17T09:04:56.169Z,1007.75
2018-07-17T09:05:56.213Z,1007.74
2018-07-17T09:07:56.261Z,1007.7
2018-07-17T09:08:56.295Z,1007.64
2018-07-17T09:09:56.325Z,1007.63
2018-07-17T09:10:56.359Z,1007.63
2018-07-17T09:11:56.393Z,1007.62
2018-07-17T09:12:56.443Z,1007.65
2018-07-17T09:13:56.459Z,1007.57
2018-07-17T09:14:56.494Z,1007.55
2018-07-17T09:15:56.525Z,1007.6
2018-07-17T09:16:56.556Z,1007.54
2018-07-17T09:17:56.590Z,1007.61
2018-07-17T09:18:56.625Z,1007.63
2018-07-17T09:19:56.657Z,1007.59
2018-07-17T09:20:56.691Z,1007.62
2018-07-17T09:22:56.757Z,1007.6
2018-07-17T09:23:56.795Z,1007.51
2018-07-17T09:24:56.824Z,1007.54
2018-07-17T09:25:56.854Z,1007.49
2018-07-17T09:26:56.887Z,1007.56
2018-07-17T09:27:56.920Z,1007.54
2018-07-17T09:28:56.953Z,1007.47
2018-07-17T09:29:56.986Z,1007.46
2018-07-17T09:30:57.019Z,1007.5
2018-07-17T09:31:57.052Z,1007.46
2018-07-17T09:32:57.084Z,1007.43
2018-07-17T09:33:57.118Z,1007.47
2018-07-17T09:34:57.149Z,1007.47
2018-07-17T09:35:57.187Z,1007.41
2018-07-17T09:36:57.218Z,1007.42
2018-07-17T09:37:57.251Z,1007.36
2018-07-17T09:38:57.325Z,1007.45
2018-07-17T09:39:57.317Z,1007.4
2018-07-17T09:40:57.350Z,1007.38
2018-07-17T09:41:57.383Z,1007.37
2018-07-17T09:42:57.416Z,1007.4
2018-07-17T09:43:57.452Z,1007.42
2018-07-17T09:44:57.482Z,1007.39
2018-07-17T09:45:57.514Z,1007.38
2018-07-17T09:46:57.548Z,1007.35
2018-07-17T09:47:57.581Z,1007.39
2018-07-17T09:48:57.614Z,1007.38
2018-07-17T09:49:57.647Z,1007.38
2018-07-17T09:50:57.680Z,1007.45
2018-07-17T09:51:57.713Z,1007.44
2018-07-17T09:52:57.746Z,1007.4
2018-07-17T09:54:57.813Z,1007.33
2018-07-17T09:55:57.846Z,1007.34
2018-07-17T09:56:57.878Z,1007.33
2018-07-17T09:57:57.912Z,1007.37
2018-07-17T09:58:57.945Z,1007.38
2018-07-17T09:59:58.028Z,1007.32
2018-07-17T10:00:58.010Z,1007.38
2018-07-17T10:01:58.042Z,1007.44
2018-07-17T10:02:58.079Z,1007.41
2018-07-17T10:03:58.110Z,1007.39
2018-07-17T10:04:58.142Z,1007.38
2018-07-17T10:05:58.178Z,1007.34
2018-07-17T10:06:58.213Z,1007.36
2018-07-17T10:07:58.241Z,1007.36
2018-07-17T10:08:58.274Z,1007.42
2018-07-17T10:10:58.343Z,1007.43
2018-07-17T10:11:58.374Z,1007.41
2018-07-17T10:12:58.407Z,1007.38
2018-07-17T10:13:58.440Z,1007.37
2018-07-17T10:14:58.472Z,1007.41
2018-07-17T10:15:58.505Z,1007.36
2018-07-17T10:16:58.543Z,1007.34
2018-07-17T10:17:58.572Z,1007.35
2018-07-17T10:18:58.604Z,1007.41
2018-07-17T10:19:58.651Z,1007.43
2018-07-17T10:20:58.669Z,1007.33
2018-07-17T10:21:58.704Z,1007.4
2018-07-17T10:22:58.736Z,1007.4
2018-07-17T10:23:58.770Z,1007.3
2018-07-17T10:24:58.803Z,1007.28
2018-07-17T10:26:58.867Z,1007.25
2018-07-17T10:27:58.902Z,1007.23
2018-07-17T10:28:58.933Z,1007.29
2018-07-17T10:29:58.964Z,1007.2
2018-07-17T10:30:58.999Z,1007.2
2018-07-17T10:31:59.089Z,1007.28
2018-07-17T10:32:59.064Z,1007.26
2018-07-17T10:33:59.095Z,1007.3
2018-07-17T10:34:59.128Z,1007.25
2018-07-17T10:35:59.161Z,1007.3
2018-07-17T10:36:59.195Z,1007.28
2018-07-17T10:37:59.226Z,1007.21
2018-07-17T10:38:59.258Z,1007.27
2018-07-17T10:39:59.291Z,1007.2
2018-07-17T10:40:59.322Z,1007.22
2018-07-17T10:42:59.388Z,1007.19
2018-07-17T10:43:59.420Z,1007.19
2018-07-17T10:44:59.450Z,1007.23
2018-07-17T10:45:59.484Z,1007.26
2018-07-17T10:46:59.515Z,1007.29
2018-07-17T10:47:59.548Z,1007.28
2018-07-17T10:48:59.581Z,1007.33
2018-07-17T10:49:59.616Z,1007.25
2018-07-17T10:50:59.646Z,1007.34
2018-07-17T10:51:59.676Z,1007.32
2018-07-17T10:52:59.711Z,1007.28
2018-07-17T10:53:59.742Z,1007.25
2018-07-17T10:54:59.775Z,1007.19
2018-07-17T10:55:59.806Z,1007.18
2018-07-17T10:57:59.871Z,1007.2
2018-07-17T10:58:59.901Z,1007.17
2018-07-17T10:59:59.986Z,1007.13
2018-07-17T11:00:59.983Z,1007.15
2018-07-17T11:01:59.998Z,1007.18
2018-07-17T11:03:00.034Z,1007.15
2018-07-17T11:04:00.062Z,1007.18
2018-07-17T11:05:00.093Z,1007.22
2018-07-17T11:06:00.123Z,1007.16
2018-07-17T11:07:00.155Z,1007.16
2018-07-17T11:08:00.190Z,1007.18
2018-07-17T11:09:00.218Z,1007.14
2018-07-17T11:10:00.257Z,1007.18
2018-07-17T11:11:00.280Z,1007.12
2018-07-17T11:12:00.312Z,1007.1
2018-07-17T11:13:00.343Z,1007.09
2018-07-17T11:14:00.372Z,1007.12
2018-07-17T11:15:00.404Z,1007.13
2018-07-17T11:16:00.435Z,1007.17
2018-07-17T11:17:00.465Z,1007.16
2018-07-17T11:18:00.495Z,1007.17
2018-07-17T11:19:00.528Z,1007.07
2018-07-17T11:20:00.559Z,1007.13
2018-07-17T11:21:00.588Z,1007.05
2018-07-17T11:22:00.623Z,1007.04
2018-07-17T11:23:00.650Z,1007.02
2018-07-17T11:24:00.681Z,1007.05
2018-07-17T11:25:00.711Z,1007.02
2018-07-17T11:26:00.742Z,1007
2018-07-17T11:27:00.775Z,1007
2018-07-17T11:28:00.802Z,1006.98
2018-07-17T11:30:00.864Z,1006.97
2018-07-17T11:31:00.893Z,1006.96
2018-07-17T11:32:00.951Z,1006.98
2018-07-17T11:33:00.955Z,1006.92
2018-07-17T11:34:00.986Z,1006.99
2018-07-17T11:35:01.016Z,1006.94
2018-07-17T11:36:01.046Z,1006.93
2018-07-17T11:37:01.076Z,1006.92
2018-07-17T11:38:01.107Z,1006.88
2018-07-17T11:39:01.138Z,1006.89
2018-07-17T11:40:01.168Z,1006.87
2018-07-17T11:41:01.199Z,1006.94
2018-07-17T11:42:01.230Z,1006.87
2018-07-17T11:43:01.259Z,1006.95
2018-07-17T11:44:01.290Z,1006.96
2018-07-17T11:46:01.352Z,1006.94
2018-07-17T11:47:01.384Z,1006.92
2018-07-17T11:48:01.413Z,1006.9
2018-07-17T11:49:01.442Z,1006.92
2018-07-17T11:50:01.471Z,1006.93
2018-07-17T11:51:01.501Z,1006.89
2018-07-17T11:52:01.531Z,1006.87
2018-07-17T11:53:01.563Z,1006.83
2018-07-17T11:54:01.593Z,1006.82
2018-07-17T11:55:01.635Z,1006.86
2018-07-17T11:56:01.655Z,1006.83
2018-07-17T11:57:01.684Z,1006.87
2018-07-17T11:58:01.714Z,1006.9
2018-07-17T11:59:01.900Z,1006.92
2018-07-17T12:00:01.774Z,1006.89
2018-07-17T12:02:01.835Z,1006.79
2018-07-17T12:03:01.867Z,1006.82
2018-07-17T12:04:01.897Z,1006.82
2018-07-17T12:05:01.929Z,1006.8
2018-07-17T12:06:02.081Z,1006.79
2018-07-17T12:07:01.987Z,1006.8
2018-07-17T12:08:02.018Z,1006.72
2018-07-17T12:09:02.047Z,1006.71
2018-07-17T12:10:02.077Z,1006.75
2018-07-17T12:11:02.110Z,1006.7
2018-07-17T12:12:02.139Z,1006.69
2018-07-17T12:13:02.342Z,1006.72
2018-07-17T12:14:02.197Z,1006.72
2018-07-17T12:15:02.238Z,1006.73
2018-07-17T12:16:02.258Z,1006.72
2018-07-17T12:18:02.319Z,1006.74
2018-07-17T12:19:02.349Z,1006.65
2018-07-17T12:20:02.557Z,1006.75
2018-07-17T12:21:02.408Z,1006.77
2018-07-17T12:22:02.438Z,1006.71
2018-07-17T12:23:02.466Z,1006.74
2018-07-17T12:24:02.498Z,1006.66
2018-07-17T12:25:02.528Z,1006.68
2018-07-17T12:26:02.559Z,1006.75
2018-07-17T12:27:02.588Z,1006.75
2018-07-17T12:28:02.686Z,1006.77
2018-07-17T12:29:02.649Z,1006.72
2018-07-17T12:30:02.680Z,1006.72
2018-07-17T12:31:02.717Z,1006.71
2018-07-17T12:33:02.771Z,1006.76
2018-07-17T12:34:02.800Z,1006.67
2018-07-17T12:35:02.924Z,1006.68
2018-07-17T12:36:02.862Z,1006.65
2018-07-17T12:37:02.894Z,1006.69
2018-07-17T12:38:02.921Z,1006.65
2018-07-17T12:39:02.952Z,1006.73
2018-07-17T12:40:02.996Z,1006.64
2018-07-17T12:41:03.011Z,1006.61
2018-07-17T12:42:03.044Z,1006.61
2018-07-17T12:43:03.072Z,1006.64
2018-07-17T12:44:03.102Z,1006.61
2018-07-17T12:45:03.134Z,1006.63
2018-07-17T12:46:03.164Z,1006.64
2018-07-17T12:47:03.194Z,1006.58
2018-07-17T12:48:03.225Z,1006.65
2018-07-17T12:49:03.253Z,1006.71